sensor_id;sensor_type;location;lat;lon;timestamp;P1;durP1;ratioP1;P2;durP2;ratioP2
10463;SDS011;5279;42.048;24.638;2022-07-12T00:00:23;1.67;;;1.23;;
10463;SDS011;5279;42.048;24.638;2022-07-12T00:02:50;1.67;;;1.33;;
10463;SDS011;5279;42.048;24.638;2022-07-12T00:05:17;1.40;;;1.30;;
10463;SDS011;5279;42.048;24.638;2022-07-12T00:07:45;1.77;;;1.10;;
10463;SDS011;5279;42.048;24.638;2022-07-12T00:10:12;1.20;;;1.20;;
10463;SDS011;5279;42.048;24.638;2022-07-12T00:12:40;3.47;;;1.20;;
10463;SDS011;5279;42.048;24.638;2022-07-12T00:15:07;2.23;;;1.30;;
10463;SDS011;5279;42.048;24.638;2022-07-12T00:17:35;1.23;;;1.13;;
10463;SDS011;5279;42.048;24.638;2022-07-12T00:20:04;1.50;;;1.40;;
10463;SDS011;5279;42.048;24.638;2022-07-12T00:22:32;2.07;;;1.20;;
10463;SDS011;5279;42.048;24.638;2022-07-12T00:25:01;1.40;;;1.10;;
10463;SDS011;5279;42.048;24.638;2022-07-12T00:27:28;2.33;;;1.10;;
10463;SDS011;5279;42.048;24.638;2022-07-12T00:29:55;2.23;;;1.40;;
10463;SDS011;5279;42.048;24.638;2022-07-12T00:32:22;2.17;;;1.27;;
10463;SDS011;5279;42.048;24.638;2022-07-12T00:34:49;3.17;;;1.20;;
10463;SDS011;5279;42.048;24.638;2022-07-12T00:37:16;1.20;;;1.10;;
10463;SDS011;5279;42.048;24.638;2022-07-12T00:39:43;2.80;;;1.30;;
10463;SDS011;5279;42.048;24.638;2022-07-12T00:42:11;1.40;;;1.30;;
10463;SDS011;5279;42.048;24.638;2022-07-12T00:44:38;2.87;;;1.30;;
10463;SDS011;5279;42.048;24.638;2022-07-12T00:47:05;3.37;;;1.37;;
10463;SDS011;5279;42.048;24.638;2022-07-12T00:49:33;1.10;;;1.00;;
10463;SDS011;5279;42.048;24.638;2022-07-12T00:52:02;3.47;;;1.60;;
10463;SDS011;5279;42.048;24.638;2022-07-12T00:54:29;1.33;;;1.13;;
10463;SDS011;5279;42.048;24.638;2022-07-12T00:56:57;1.27;;;1.20;;
10463;SDS011;5279;42.048;24.638;2022-07-12T00:59:26;2.23;;;1.53;;
10463;SDS011;5279;42.048;24.638;2022-07-12T01:01:53;1.10;;;1.10;;
10463;SDS011;5279;42.048;24.638;2022-07-12T01:04:20;2.50;;;1.33;;
10463;SDS011;5279;42.048;24.638;2022-07-12T01:06:47;1.40;;;1.40;;
10463;SDS011;5279;42.048;24.638;2022-07-12T01:09:15;2.30;;;1.67;;
10463;SDS011;5279;42.048;24.638;2022-07-12T01:11:42;1.57;;;1.47;;
10463;SDS011;5279;42.048;24.638;2022-07-12T01:14:09;2.40;;;1.40;;
10463;SDS011;5279;42.048;24.638;2022-07-12T01:16:40;1.37;;;1.27;;
10463;SDS011;5279;42.048;24.638;2022-07-12T01:19:07;2.00;;;1.30;;
10463;SDS011;5279;42.048;24.638;2022-07-12T01:21:40;2.47;;;1.47;;
10463;SDS011;5279;42.048;24.638;2022-07-12T01:24:10;1.27;;;1.13;;
10463;SDS011;5279;42.048;24.638;2022-07-12T01:26:39;1.60;;;1.50;;
10463;SDS011;5279;42.048;24.638;2022-07-12T01:29:06;3.87;;;1.63;;
10463;SDS011;5279;42.048;24.638;2022-07-12T01:31:35;4.17;;;1.50;;
10463;SDS011;5279;42.048;24.638;2022-07-12T01:34:02;1.63;;;1.53;;
10463;SDS011;5279;42.048;24.638;2022-07-12T01:36:30;2.47;;;1.50;;
10463;SDS011;5279;42.048;24.638;2022-07-12T01:38:57;2.20;;;2.00;;
10463;SDS011;5279;42.048;24.638;2022-07-12T01:41:25;1.50;;;1.40;;
10463;SDS011;5279;42.048;24.638;2022-07-12T01:43:53;3.87;;;1.60;;
10463;SDS011;5279;42.048;24.638;2022-07-12T01:46:20;2.50;;;1.90;;
10463;SDS011;5279;42.048;24.638;2022-07-12T01:48:47;1.90;;;1.70;;
10463;SDS011;5279;42.048;24.638;2022-07-12T01:51:14;1.20;;;1.20;;
10463;SDS011;5279;42.048;24.638;2022-07-12T01:53:42;2.03;;;1.57;;
10463;SDS011;5279;42.048;24.638;2022-07-12T01:56:09;1.60;;;1.50;;
10463;SDS011;5279;42.048;24.638;2022-07-12T01:58:37;2.07;;;1.70;;
10463;SDS011;5279;42.048;24.638;2022-07-12T02:01:04;1.63;;;1.40;;
10463;SDS011;5279;42.048;24.638;2022-07-12T02:03:33;3.23;;;1.33;;
10463;SDS011;5279;42.048;24.638;2022-07-12T02:06:01;2.37;;;1.40;;
10463;SDS011;5279;42.048;24.638;2022-07-12T02:08:28;1.47;;;1.37;;
10463;SDS011;5279;42.048;24.638;2022-07-12T02:10:55;1.60;;;1.30;;
10463;SDS011;5279;42.048;24.638;2022-07-12T02:13:22;1.97;;;1.87;;
10463;SDS011;5279;42.048;24.638;2022-07-12T02:15:51;1.57;;;1.47;;
10463;SDS011;5279;42.048;24.638;2022-07-12T02:18:18;2.93;;;1.40;;
10463;SDS011;5279;42.048;24.638;2022-07-12T02:20:45;1.60;;;1.50;;
10463;SDS011;5279;42.048;24.638;2022-07-12T02:23:12;2.33;;;1.60;;
10463;SDS011;5279;42.048;24.638;2022-07-12T02:25:39;1.73;;;1.40;;
10463;SDS011;5279;42.048;24.638;2022-07-12T02:28:06;1.47;;;1.37;;
10463;SDS011;5279;42.048;24.638;2022-07-12T02:30:33;2.57;;;1.90;;
10463;SDS011;5279;42.048;24.638;2022-07-12T02:33:04;2.73;;;1.50;;
10463;SDS011;5279;42.048;24.638;2022-07-12T02:35:31;1.50;;;1.40;;
10463;SDS011;5279;42.048;24.638;2022-07-12T02:37:58;1.70;;;1.50;;
10463;SDS011;5279;42.048;24.638;2022-07-12T02:40:25;1.80;;;1.70;;
10463;SDS011;5279;42.048;24.638;2022-07-12T02:43:09;1.87;;;1.53;;
10463;SDS011;5279;42.048;24.638;2022-07-12T02:45:36;1.33;;;1.30;;
10463;SDS011;5279;42.048;24.638;2022-07-12T02:48:05;1.93;;;1.50;;
10463;SDS011;5279;42.048;24.638;2022-07-12T02:50:32;2.00;;;1.17;;
10463;SDS011;5279;42.048;24.638;2022-07-12T02:52:59;1.53;;;1.30;;
10463;SDS011;5279;42.048;24.638;2022-07-12T02:55:26;2.90;;;1.40;;
10463;SDS011;5279;42.048;24.638;2022-07-12T02:57:53;1.50;;;1.40;;
10463;SDS011;5279;42.048;24.638;2022-07-12T03:00:20;2.67;;;1.23;;
10463;SDS011;5279;42.048;24.638;2022-07-12T03:02:47;1.50;;;1.40;;
10463;SDS011;5279;42.048;24.638;2022-07-12T03:05:16;1.37;;;1.27;;
10463;SDS011;5279;42.048;24.638;2022-07-12T03:07:43;1.50;;;1.33;;
10463;SDS011;5279;42.048;24.638;2022-07-12T03:10:10;2.17;;;1.30;;
10463;SDS011;5279;42.048;24.638;2022-07-12T03:12:37;1.53;;;1.20;;
10463;SDS011;5279;42.048;24.638;2022-07-12T03:15:05;1.30;;;1.20;;
10463;SDS011;5279;42.048;24.638;2022-07-12T03:17:45;1.50;;;1.33;;
10463;SDS011;5279;42.048;24.638;2022-07-12T03:20:12;1.77;;;1.20;;
10463;SDS011;5279;42.048;24.638;2022-07-12T03:22:41;1.13;;;1.13;;
10463;SDS011;5279;42.048;24.638;2022-07-12T03:25:09;1.77;;;1.33;;
10463;SDS011;5279;42.048;24.638;2022-07-12T03:27:37;2.70;;;1.30;;
10463;SDS011;5279;42.048;24.638;2022-07-12T03:30:05;1.63;;;1.30;;
10463;SDS011;5279;42.048;24.638;2022-07-12T03:32:45;3.07;;;1.30;;
10463;SDS011;5279;42.048;24.638;2022-07-12T03:35:12;2.30;;;1.50;;
10463;SDS011;5279;42.048;24.638;2022-07-12T03:37:44;1.40;;;1.30;;
10463;SDS011;5279;42.048;24.638;2022-07-12T03:40:12;1.20;;;1.20;;
10463;SDS011;5279;42.048;24.638;2022-07-12T03:42:40;1.50;;;1.10;;
10463;SDS011;5279;42.048;24.638;2022-07-12T03:45:08;1.47;;;1.20;;
10463;SDS011;5279;42.048;24.638;2022-07-12T03:47:35;2.30;;;1.40;;
10463;SDS011;5279;42.048;24.638;2022-07-12T03:50:03;2.80;;;1.23;;
10463;SDS011;5279;42.048;24.638;2022-07-12T03:52:31;2.53;;;1.10;;
10463;SDS011;5279;42.048;24.638;2022-07-12T03:55:00;1.20;;;1.00;;
10463;SDS011;5279;42.048;24.638;2022-07-12T03:57:27;1.40;;;1.30;;
10463;SDS011;5279;42.048;24.638;2022-07-12T03:59:55;2.47;;;1.20;;
10463;SDS011;5279;42.048;24.638;2022-07-12T04:02:22;1.43;;;1.13;;
10463;SDS011;5279;42.048;24.638;2022-07-12T04:04:50;2.13;;;1.33;;
10463;SDS011;5279;42.048;24.638;2022-07-12T04:07:17;1.90;;;1.20;;
10463;SDS011;5279;42.048;24.638;2022-07-12T04:09:45;1.30;;;1.20;;
10463;SDS011;5279;42.048;24.638;2022-07-12T04:12:13;1.57;;;1.00;;
10463;SDS011;5279;42.048;24.638;2022-07-12T04:14:40;1.47;;;1.30;;
10463;SDS011;5279;42.048;24.638;2022-07-12T04:17:07;2.37;;;1.30;;
10463;SDS011;5279;42.048;24.638;2022-07-12T04:19:34;1.60;;;1.30;;
10463;SDS011;5279;42.048;24.638;2022-07-12T04:22:04;1.83;;;1.10;;
10463;SDS011;5279;42.048;24.638;2022-07-12T04:24:31;1.10;;;1.00;;
10463;SDS011;5279;42.048;24.638;2022-07-12T04:26:59;1.20;;;1.10;;
10463;SDS011;5279;42.048;24.638;2022-07-12T04:29:27;2.07;;;1.00;;
10463;SDS011;5279;42.048;24.638;2022-07-12T04:31:54;1.30;;;1.20;;
10463;SDS011;5279;42.048;24.638;2022-07-12T04:34:22;2.50;;;1.30;;
10463;SDS011;5279;42.048;24.638;2022-07-12T04:36:49;1.60;;;1.20;;
10463;SDS011;5279;42.048;24.638;2022-07-12T04:39:16;1.57;;;1.17;;
10463;SDS011;5279;42.048;24.638;2022-07-12T04:41:43;2.03;;;1.30;;
10463;SDS011;5279;42.048;24.638;2022-07-12T04:44:10;1.17;;;1.10;;
10463;SDS011;5279;42.048;24.638;2022-07-12T04:46:38;1.33;;;1.00;;
10463;SDS011;5279;42.048;24.638;2022-07-12T04:49:05;1.47;;;1.30;;
10463;SDS011;5279;42.048;24.638;2022-07-12T04:51:32;1.33;;;1.20;;
10463;SDS011;5279;42.048;24.638;2022-07-12T04:53:59;1.30;;;1.20;;
10463;SDS011;5279;42.048;24.638;2022-07-12T04:56:26;1.70;;;0.97;;
10463;SDS011;5279;42.048;24.638;2022-07-12T04:58:54;3.07;;;1.63;;
10463;SDS011;5279;42.048;24.638;2022-07-12T05:01:21;1.20;;;1.10;;
10463;SDS011;5279;42.048;24.638;2022-07-12T05:03:49;1.30;;;1.20;;
10463;SDS011;5279;42.048;24.638;2022-07-12T05:06:16;1.93;;;1.27;;
10463;SDS011;5279;42.048;24.638;2022-07-12T05:08:43;3.27;;;1.23;;
10463;SDS011;5279;42.048;24.638;2022-07-12T05:11:10;2.20;;;1.10;;
10463;SDS011;5279;42.048;24.638;2022-07-12T05:13:38;1.33;;;1.00;;
10463;SDS011;5279;42.048;24.638;2022-07-12T05:16:05;2.87;;;1.00;;
10463;SDS011;5279;42.048;24.638;2022-07-12T05:18:34;2.23;;;1.10;;
10463;SDS011;5279;42.048;24.638;2022-07-12T05:21:02;3.67;;;1.30;;
10463;SDS011;5279;42.048;24.638;2022-07-12T05:23:30;1.43;;;1.20;;
10463;SDS011;5279;42.048;24.638;2022-07-12T05:25:57;1.20;;;1.00;;
10463;SDS011;5279;42.048;24.638;2022-07-12T05:28:24;1.73;;;1.10;;
10463;SDS011;5279;42.048;24.638;2022-07-12T05:30:51;3.37;;;1.03;;
10463;SDS011;5279;42.048;24.638;2022-07-12T05:33:19;1.90;;;1.13;;
10463;SDS011;5279;42.048;24.638;2022-07-12T05:35:46;1.43;;;1.17;;
10463;SDS011;5279;42.048;24.638;2022-07-12T05:38:15;1.47;;;1.00;;
10463;SDS011;5279;42.048;24.638;2022-07-12T05:40:42;2.90;;;1.10;;
10463;SDS011;5279;42.048;24.638;2022-07-12T05:43:09;2.53;;;0.90;;
10463;SDS011;5279;42.048;24.638;2022-07-12T05:45:36;2.40;;;1.00;;
10463;SDS011;5279;42.048;24.638;2022-07-12T05:48:03;1.00;;;1.00;;
10463;SDS011;5279;42.048;24.638;2022-07-12T05:50:31;5.80;;;1.30;;
10463;SDS011;5279;42.048;24.638;2022-07-12T05:52:58;1.80;;;1.10;;
10463;SDS011;5279;42.048;24.638;2022-07-12T05:55:43;2.43;;;1.00;;
10463;SDS011;5279;42.048;24.638;2022-07-12T05:58:11;1.40;;;1.10;;
10463;SDS011;5279;42.048;24.638;2022-07-12T06:00:38;1.83;;;1.17;;
10463;SDS011;5279;42.048;24.638;2022-07-12T06:03:05;2.00;;;1.03;;
10463;SDS011;5279;42.048;24.638;2022-07-12T06:05:32;1.33;;;0.90;;
10463;SDS011;5279;42.048;24.638;2022-07-12T06:07:59;2.80;;;1.10;;
10463;SDS011;5279;42.048;24.638;2022-07-12T06:10:26;1.23;;;1.03;;
10463;SDS011;5279;42.048;24.638;2022-07-12T06:12:54;1.60;;;1.07;;
10463;SDS011;5279;42.048;24.638;2022-07-12T06:15:21;3.60;;;1.07;;
10463;SDS011;5279;42.048;24.638;2022-07-12T06:17:49;4.20;;;1.00;;
10463;SDS011;5279;42.048;24.638;2022-07-12T06:20:16;2.40;;;1.10;;
10463;SDS011;5279;42.048;24.638;2022-07-12T06:22:43;0.80;;;0.80;;
10463;SDS011;5279;42.048;24.638;2022-07-12T06:25:10;2.53;;;1.20;;
10463;SDS011;5279;42.048;24.638;2022-07-12T06:27:37;1.80;;;1.30;;
10463;SDS011;5279;42.048;24.638;2022-07-12T06:30:06;1.43;;;1.10;;
10463;SDS011;5279;42.048;24.638;2022-07-12T06:32:34;1.43;;;1.00;;
10463;SDS011;5279;42.048;24.638;2022-07-12T06:35:01;2.37;;;1.07;;
10463;SDS011;5279;42.048;24.638;2022-07-12T06:37:28;3.37;;;1.40;;
10463;SDS011;5279;42.048;24.638;2022-07-12T06:39:54;1.40;;;1.10;;
10463;SDS011;5279;42.048;24.638;2022-07-12T06:42:21;3.77;;;0.90;;
10463;SDS011;5279;42.048;24.638;2022-07-12T06:44:48;1.37;;;1.10;;
10463;SDS011;5279;42.048;24.638;2022-07-12T06:47:17;1.30;;;1.20;;
10463;SDS011;5279;42.048;24.638;2022-07-12T06:49:44;1.20;;;1.10;;
10463;SDS011;5279;42.048;24.638;2022-07-12T06:52:11;3.87;;;1.60;;
10463;SDS011;5279;42.048;24.638;2022-07-12T06:54:38;3.73;;;1.00;;
10463;SDS011;5279;42.048;24.638;2022-07-12T06:57:05;1.00;;;0.80;;
10463;SDS011;5279;42.048;24.638;2022-07-12T06:59:32;2.47;;;1.10;;
10463;SDS011;5279;42.048;24.638;2022-07-12T07:01:59;5.13;;;1.47;;
10463;SDS011;5279;42.048;24.638;2022-07-12T07:04:28;3.43;;;1.30;;
10463;SDS011;5279;42.048;24.638;2022-07-12T07:06:55;2.60;;;0.83;;
10463;SDS011;5279;42.048;24.638;2022-07-12T07:09:22;1.70;;;0.90;;
10463;SDS011;5279;42.048;24.638;2022-07-12T07:11:49;1.17;;;0.90;;
10463;SDS011;5279;42.048;24.638;2022-07-12T07:14:16;3.90;;;1.03;;
10463;SDS011;5279;42.048;24.638;2022-07-12T07:16:43;3.70;;;1.00;;
10463;SDS011;5279;42.048;24.638;2022-07-12T07:19:10;3.73;;;0.80;;
10463;SDS011;5279;42.048;24.638;2022-07-12T07:21:38;1.97;;;1.00;;
10463;SDS011;5279;42.048;24.638;2022-07-12T07:24:05;2.07;;;1.00;;
10463;SDS011;5279;42.048;24.638;2022-07-12T07:26:34;2.87;;;0.83;;
10463;SDS011;5279;42.048;24.638;2022-07-12T07:29:01;1.70;;;0.90;;
10463;SDS011;5279;42.048;24.638;2022-07-12T07:31:46;1.20;;;1.00;;
10463;SDS011;5279;42.048;24.638;2022-07-12T07:34:13;3.73;;;1.20;;
10463;SDS011;5279;42.048;24.638;2022-07-12T07:36:41;2.00;;;1.10;;
10463;SDS011;5279;42.048;24.638;2022-07-12T07:39:08;1.83;;;0.90;;
10463;SDS011;5279;42.048;24.638;2022-07-12T07:41:37;2.40;;;0.90;;
10463;SDS011;5279;42.048;24.638;2022-07-12T07:44:04;1.63;;;0.87;;
10463;SDS011;5279;42.048;24.638;2022-07-12T07:46:32;1.20;;;0.90;;
10463;SDS011;5279;42.048;24.638;2022-07-12T07:48:58;2.77;;;1.00;;
10463;SDS011;5279;42.048;24.638;2022-07-12T07:51:25;3.27;;;1.03;;
10463;SDS011;5279;42.048;24.638;2022-07-12T07:53:54;2.57;;;0.90;;
10463;SDS011;5279;42.048;24.638;2022-07-12T07:56:21;3.43;;;1.03;;
10463;SDS011;5279;42.048;24.638;2022-07-12T07:58:48;2.60;;;1.00;;
10463;SDS011;5279;42.048;24.638;2022-07-12T08:01:17;5.50;;;1.20;;
10463;SDS011;5279;42.048;24.638;2022-07-12T08:03:44;2.13;;;0.73;;
10463;SDS011;5279;42.048;24.638;2022-07-12T08:06:10;1.70;;;0.80;;
10463;SDS011;5279;42.048;24.638;2022-07-12T08:08:37;1.90;;;0.90;;
10463;SDS011;5279;42.048;24.638;2022-07-12T08:11:06;3.50;;;1.10;;
10463;SDS011;5279;42.048;24.638;2022-07-12T08:13:33;2.43;;;0.93;;
10463;SDS011;5279;42.048;24.638;2022-07-12T08:16:00;2.10;;;1.00;;
10463;SDS011;5279;42.048;24.638;2022-07-12T08:18:27;3.23;;;0.90;;
10463;SDS011;5279;42.048;24.638;2022-07-12T08:20:54;1.37;;;0.80;;
10463;SDS011;5279;42.048;24.638;2022-07-12T08:23:21;4.47;;;1.03;;
10463;SDS011;5279;42.048;24.638;2022-07-12T08:25:50;1.70;;;0.80;;
10463;SDS011;5279;42.048;24.638;2022-07-12T08:28:18;1.20;;;0.83;;
10463;SDS011;5279;42.048;24.638;2022-07-12T08:30:45;4.60;;;0.70;;
10463;SDS011;5279;42.048;24.638;2022-07-12T08:33:13;3.20;;;0.70;;
10463;SDS011;5279;42.048;24.638;2022-07-12T08:35:40;1.87;;;0.50;;
10463;SDS011;5279;42.048;24.638;2022-07-12T08:38:08;1.20;;;0.70;;
10463;SDS011;5279;42.048;24.638;2022-07-12T08:40:35;1.20;;;0.57;;
10463;SDS011;5279;42.048;24.638;2022-07-12T08:43:02;1.87;;;1.00;;
10463;SDS011;5279;42.048;24.638;2022-07-12T08:45:31;2.47;;;0.70;;
10463;SDS011;5279;42.048;24.638;2022-07-12T08:47:58;2.23;;;0.90;;
10463;SDS011;5279;42.048;24.638;2022-07-12T08:50:25;4.40;;;0.90;;
10463;SDS011;5279;42.048;24.638;2022-07-12T08:52:53;3.57;;;0.80;;
10463;SDS011;5279;42.048;24.638;2022-07-12T08:55:22;1.53;;;0.80;;
10463;SDS011;5279;42.048;24.638;2022-07-12T08:57:51;1.13;;;0.70;;
10463;SDS011;5279;42.048;24.638;2022-07-12T09:00:20;5.13;;;0.90;;
10463;SDS011;5279;42.048;24.638;2022-07-12T09:02:49;4.93;;;0.90;;
10463;SDS011;5279;42.048;24.638;2022-07-12T09:05:17;1.60;;;0.57;;
10463;SDS011;5279;42.048;24.638;2022-07-12T09:07:47;1.67;;;0.60;;
10463;SDS011;5279;42.048;24.638;2022-07-12T09:10:14;3.63;;;0.90;;
10463;SDS011;5279;42.048;24.638;2022-07-12T09:12:41;2.13;;;0.97;;
10463;SDS011;5279;42.048;24.638;2022-07-12T09:15:13;2.73;;;0.90;;
10463;SDS011;5279;42.048;24.638;2022-07-12T09:17:45;2.93;;;1.00;;
10463;SDS011;5279;42.048;24.638;2022-07-12T09:20:21;2.87;;;0.90;;
10463;SDS011;5279;42.048;24.638;2022-07-12T09:22:56;3.70;;;0.97;;
10463;SDS011;5279;42.048;24.638;2022-07-12T09:25:24;1.70;;;0.77;;
10463;SDS011;5279;42.048;24.638;2022-07-12T09:27:53;2.63;;;1.00;;
10463;SDS011;5279;42.048;24.638;2022-07-12T09:30:21;3.70;;;0.80;;
10463;SDS011;5279;42.048;24.638;2022-07-12T09:32:50;3.23;;;1.00;;
10463;SDS011;5279;42.048;24.638;2022-07-12T09:35:41;1.53;;;0.87;;
10463;SDS011;5279;42.048;24.638;2022-07-12T09:38:28;2.47;;;0.70;;
10463;SDS011;5279;42.048;24.638;2022-07-12T09:40:55;3.47;;;0.87;;
10463;SDS011;5279;42.048;24.638;2022-07-12T09:43:23;2.77;;;0.87;;
10463;SDS011;5279;42.048;24.638;2022-07-12T09:45:50;2.70;;;0.83;;
10463;SDS011;5279;42.048;24.638;2022-07-12T09:48:18;2.17;;;0.87;;
10463;SDS011;5279;42.048;24.638;2022-07-12T09:50:48;4.17;;;1.00;;
10463;SDS011;5279;42.048;24.638;2022-07-12T09:53:18;1.37;;;0.90;;
10463;SDS011;5279;42.048;24.638;2022-07-12T09:55:54;0.90;;;0.80;;
10463;SDS011;5279;42.048;24.638;2022-07-12T09:58:22;2.30;;;0.70;;
10463;SDS011;5279;42.048;24.638;2022-07-12T10:00:52;2.27;;;1.03;;
10463;SDS011;5279;42.048;24.638;2022-07-12T10:03:20;2.40;;;0.90;;
10463;SDS011;5279;42.048;24.638;2022-07-12T10:05:52;1.60;;;0.73;;
10463;SDS011;5279;42.048;24.638;2022-07-12T10:08:19;1.57;;;0.90;;
10463;SDS011;5279;42.048;24.638;2022-07-12T10:10:47;3.23;;;1.00;;
10463;SDS011;5279;42.048;24.638;2022-07-12T10:13:16;0.87;;;0.80;;
10463;SDS011;5279;42.048;24.638;2022-07-12T10:15:46;2.43;;;1.00;;
10463;SDS011;5279;42.048;24.638;2022-07-12T10:18:17;1.60;;;0.97;;
10463;SDS011;5279;42.048;24.638;2022-07-12T10:20:46;1.60;;;0.83;;
10463;SDS011;5279;42.048;24.638;2022-07-12T10:23:34;3.13;;;1.00;;
10463;SDS011;5279;42.048;24.638;2022-07-12T10:28:58;1.57;;;0.90;;
10463;SDS011;5279;42.048;24.638;2022-07-12T10:31:27;1.97;;;1.00;;
10463;SDS011;5279;42.048;24.638;2022-07-12T10:34:06;1.97;;;0.77;;
10463;SDS011;5279;42.048;24.638;2022-07-12T10:39:37;1.13;;;0.80;;
10463;SDS011;5279;42.048;24.638;2022-07-12T10:42:15;1.50;;;0.70;;
10463;SDS011;5279;42.048;24.638;2022-07-12T10:44:44;1.63;;;0.83;;
10463;SDS011;5279;42.048;24.638;2022-07-12T10:47:13;2.53;;;0.70;;
10463;SDS011;5279;42.048;24.638;2022-07-12T10:49:45;3.00;;;1.03;;
10463;SDS011;5279;42.048;24.638;2022-07-12T10:52:22;1.77;;;1.10;;
10463;SDS011;5279;42.048;24.638;2022-07-12T10:57:45;3.33;;;0.97;;
10463;SDS011;5279;42.048;24.638;2022-07-12T11:00:17;1.60;;;0.80;;
10463;SDS011;5279;42.048;24.638;2022-07-12T11:02:44;3.17;;;1.10;;
10463;SDS011;5279;42.048;24.638;2022-07-12T11:05:12;5.40;;;0.93;;
10463;SDS011;5279;42.048;24.638;2022-07-12T11:07:38;2.43;;;1.00;;
10463;SDS011;5279;42.048;24.638;2022-07-12T11:10:06;2.83;;;1.10;;
10463;SDS011;5279;42.048;24.638;2022-07-12T11:12:39;2.13;;;1.03;;
10463;SDS011;5279;42.048;24.638;2022-07-12T11:15:06;1.97;;;0.80;;
10463;SDS011;5279;42.048;24.638;2022-07-12T11:17:34;2.10;;;0.87;;
10463;SDS011;5279;42.048;24.638;2022-07-12T11:20:07;2.27;;;0.83;;
10463;SDS011;5279;42.048;24.638;2022-07-12T11:22:37;4.27;;;1.23;;
10463;SDS011;5279;42.048;24.638;2022-07-12T11:25:06;2.23;;;0.90;;
10463;SDS011;5279;42.048;24.638;2022-07-12T11:27:35;2.23;;;0.80;;
10463;SDS011;5279;42.048;24.638;2022-07-12T11:30:04;2.50;;;0.90;;
10463;SDS011;5279;42.048;24.638;2022-07-12T11:32:36;3.17;;;1.10;;
10463;SDS011;5279;42.048;24.638;2022-07-12T11:35:16;3.63;;;1.23;;
10463;SDS011;5279;42.048;24.638;2022-07-12T11:37:48;2.33;;;1.07;;
10463;SDS011;5279;42.048;24.638;2022-07-12T11:40:20;2.10;;;1.03;;
10463;SDS011;5279;42.048;24.638;2022-07-12T11:42:52;1.70;;;0.97;;
10463;SDS011;5279;42.048;24.638;2022-07-12T11:45:25;2.27;;;0.90;;
10463;SDS011;5279;42.048;24.638;2022-07-12T11:47:52;2.10;;;0.90;;
10463;SDS011;5279;42.048;24.638;2022-07-12T11:50:20;2.05;;;0.90;;
10463;SDS011;5279;42.048;24.638;2022-07-12T11:52:47;3.40;;;1.02;;
10463;SDS011;5279;42.048;24.638;2022-07-12T11:55:14;1.52;;;1.02;;
10463;SDS011;5279;42.048;24.638;2022-07-12T11:57:41;1.90;;;1.05;;
10463;SDS011;5279;42.048;24.638;2022-07-12T12:00:15;1.92;;;0.82;;
10463;SDS011;5279;42.048;24.638;2022-07-12T12:02:44;2.05;;;0.90;;
10463;SDS011;5279;42.048;24.638;2022-07-12T12:05:11;1.90;;;0.80;;
10463;SDS011;5279;42.048;24.638;2022-07-12T12:07:39;2.77;;;0.93;;
10463;SDS011;5279;42.048;24.638;2022-07-12T12:10:09;2.75;;;1.05;;
10463;SDS011;5279;42.048;24.638;2022-07-12T12:12:38;1.40;;;0.93;;
10463;SDS011;5279;42.048;24.638;2022-07-12T12:15:09;3.17;;;0.90;;
10463;SDS011;5279;42.048;24.638;2022-07-12T12:17:44;1.97;;;0.80;;
10463;SDS011;5279;42.048;24.638;2022-07-12T12:20:13;2.20;;;0.77;;
10463;SDS011;5279;42.048;24.638;2022-07-12T12:22:42;1.85;;;0.95;;
10463;SDS011;5279;42.048;24.638;2022-07-12T12:25:10;1.98;;;1.00;;
10463;SDS011;5279;42.048;24.638;2022-07-12T12:27:41;2.55;;;1.02;;
10463;SDS011;5279;42.048;24.638;2022-07-12T12:30:10;0.90;;;0.80;;
10463;SDS011;5279;42.048;24.638;2022-07-12T12:32:49;2.75;;;0.98;;
10463;SDS011;5279;42.048;24.638;2022-07-12T12:35:17;2.47;;;1.15;;
10463;SDS011;5279;42.048;24.638;2022-07-12T12:37:52;2.58;;;1.10;;
10463;SDS011;5279;42.048;24.638;2022-07-12T12:40:21;1.92;;;0.98;;
10463;SDS011;5279;42.048;24.638;2022-07-12T12:42:49;2.67;;;1.08;;
10463;SDS011;5279;42.048;24.638;2022-07-12T12:45:21;4.57;;;1.10;;
10463;SDS011;5279;42.048;24.638;2022-07-12T12:47:54;4.15;;;1.20;;
10463;SDS011;5279;42.048;24.638;2022-07-12T12:50:41;2.78;;;1.00;;
10463;SDS011;5279;42.048;24.638;2022-07-12T12:53:10;2.13;;;1.30;;
10463;SDS011;5279;42.048;24.638;2022-07-12T12:55:38;2.53;;;1.10;;
10463;SDS011;5279;42.048;24.638;2022-07-12T12:58:05;1.80;;;1.10;;
10463;SDS011;5279;42.048;24.638;2022-07-12T13:00:34;3.53;;;0.90;;
10463;SDS011;5279;42.048;24.638;2022-07-12T13:03:05;2.55;;;1.25;;
10463;SDS011;5279;42.048;24.638;2022-07-12T13:05:33;2.33;;;1.10;;
10463;SDS011;5279;42.048;24.638;2022-07-12T13:08:00;2.28;;;1.08;;
10463;SDS011;5279;42.048;24.638;2022-07-12T13:10:27;1.40;;;1.08;;
10463;SDS011;5279;42.048;24.638;2022-07-12T13:12:55;3.42;;;1.02;;
10463;SDS011;5279;42.048;24.638;2022-07-12T13:15:22;2.83;;;1.13;;
10463;SDS011;5279;42.048;24.638;2022-07-12T13:17:49;1.60;;;1.05;;
10463;SDS011;5279;42.048;24.638;2022-07-12T13:20:18;7.53;;;1.20;;
10463;SDS011;5279;42.048;24.638;2022-07-12T13:22:45;2.53;;;1.00;;
10463;SDS011;5279;42.048;24.638;2022-07-12T13:25:12;3.37;;;1.10;;
10463;SDS011;5279;42.048;24.638;2022-07-12T13:27:40;1.73;;;1.10;;
10463;SDS011;5279;42.048;24.638;2022-07-12T13:30:09;2.83;;;1.00;;
10463;SDS011;5279;42.048;24.638;2022-07-12T13:32:37;2.93;;;1.20;;
10463;SDS011;5279;42.048;24.638;2022-07-12T13:35:05;2.33;;;1.03;;
10463;SDS011;5279;42.048;24.638;2022-07-12T13:37:39;3.07;;;1.27;;
10463;SDS011;5279;42.048;24.638;2022-07-12T13:40:07;1.17;;;0.90;;
10463;SDS011;5279;42.048;24.638;2022-07-12T13:42:40;3.33;;;1.10;;
10463;SDS011;5279;42.048;24.638;2022-07-12T13:45:09;3.60;;;1.20;;
10463;SDS011;5279;42.048;24.638;2022-07-12T13:47:37;3.70;;;1.33;;
10463;SDS011;5279;42.048;24.638;2022-07-12T13:50:06;2.30;;;1.10;;
10463;SDS011;5279;42.048;24.638;2022-07-12T13:52:36;4.50;;;1.20;;
10463;SDS011;5279;42.048;24.638;2022-07-12T13:55:05;3.22;;;1.00;;
10463;SDS011;5279;42.048;24.638;2022-07-12T13:57:33;3.23;;;1.13;;
10463;SDS011;5279;42.048;24.638;2022-07-12T14:00:02;3.63;;;1.20;;
10463;SDS011;5279;42.048;24.638;2022-07-12T14:02:34;3.30;;;1.10;;
10463;SDS011;5279;42.048;24.638;2022-07-12T14:05:01;4.30;;;1.20;;
10463;SDS011;5279;42.048;24.638;2022-07-12T14:07:28;1.53;;;1.27;;
10463;SDS011;5279;42.048;24.638;2022-07-12T14:09:58;1.53;;;0.90;;
10463;SDS011;5279;42.048;24.638;2022-07-12T14:12:25;8.57;;;1.30;;
10463;SDS011;5279;42.048;24.638;2022-07-12T14:14:53;1.70;;;1.10;;
10463;SDS011;5279;42.048;24.638;2022-07-12T14:17:37;2.50;;;1.00;;
10463;SDS011;5279;42.048;24.638;2022-07-12T14:20:04;3.97;;;1.13;;
10463;SDS011;5279;42.048;24.638;2022-07-12T14:22:32;2.47;;;1.30;;
10463;SDS011;5279;42.048;24.638;2022-07-12T14:25:01;2.77;;;1.30;;
10463;SDS011;5279;42.048;24.638;2022-07-12T14:27:29;3.53;;;1.10;;
10463;SDS011;5279;42.048;24.638;2022-07-12T14:29:56;4.43;;;1.50;;
10463;SDS011;5279;42.048;24.638;2022-07-12T14:32:23;2.50;;;1.13;;
10463;SDS011;5279;42.048;24.638;2022-07-12T14:34:50;4.30;;;1.08;;
10463;SDS011;5279;42.048;24.638;2022-07-12T14:37:17;2.37;;;0.80;;
10463;SDS011;5279;42.048;24.638;2022-07-12T14:39:44;2.87;;;1.00;;
10463;SDS011;5279;42.048;24.638;2022-07-12T14:42:14;2.20;;;0.90;;
10463;SDS011;5279;42.048;24.638;2022-07-12T14:44:41;1.43;;;0.80;;
10463;SDS011;5279;42.048;24.638;2022-07-12T14:47:08;2.50;;;1.27;;
10463;SDS011;5279;42.048;24.638;2022-07-12T14:49:36;2.53;;;0.90;;
10463;SDS011;5279;42.048;24.638;2022-07-12T14:52:03;3.63;;;1.13;;
10463;SDS011;5279;42.048;24.638;2022-07-12T14:54:34;3.93;;;0.90;;
10463;SDS011;5279;42.048;24.638;2022-07-12T14:57:01;2.00;;;1.10;;
10463;SDS011;5279;42.048;24.638;2022-07-12T14:59:29;2.17;;;1.37;;
10463;SDS011;5279;42.048;24.638;2022-07-12T15:01:56;3.13;;;1.00;;
10463;SDS011;5279;42.048;24.638;2022-07-12T15:04:23;4.03;;;1.10;;